sensor_id;sensor_type;location;lat;lon;timestamp;temperature;humidity
77247;SHT35;66279;42.820;23.374;2023-04-01T00:00:19;7.37;75.60
77247;SHT35;66279;42.820;23.374;2023-04-01T00:02:46;7.35;75.40
77247;SHT35;66279;42.820;23.374;2023-04-01T00:05:12;7.41;75.42
77247;SHT35;66279;42.820;23.374;2023-04-01T00:07:38;7.41;75.36
77247;SHT35;66279;42.820;23.374;2023-04-01T00:10:06;7.45;76.15
77247;SHT35;66279;42.820;23.374;2023-04-01T00:12:32;7.50;75.56
77247;SHT35;66279;42.820;23.374;2023-04-01T00:14:58;7.55;75.40
77247;SHT35;66279;42.820;23.374;2023-04-01T00:17:23;7.61;75.35
77247;SHT35;66279;42.820;23.374;2023-04-01T00:19:49;7.66;75.18
77247;SHT35;66279;42.820;23.374;2023-04-01T00:22:15;7.72;74.48
77247;SHT35;66279;42.820;23.374;2023-04-01T00:24:40;7.75;74.58
77247;SHT35;66279;42.820;23.374;2023-04-01T00:27:06;7.81;74.73
77247;SHT35;66279;42.820;23.374;2023-04-01T00:29:34;7.85;74.84
77247;SHT35;66279;42.820;23.374;2023-04-01T00:32:00;7.85;74.01
77247;SHT35;66279;42.820;23.374;2023-04-01T00:34:26;7.85;74.40
77247;SHT35;66279;42.820;23.374;2023-04-01T00:36:52;7.90;73.79
77247;SHT35;66279;42.820;23.374;2023-04-01T00:39:19;7.96;74.64
77247;SHT35;66279;42.820;23.374;2023-04-01T00:41:45;7.95;74.61
77247;SHT35;66279;42.820;23.374;2023-04-01T00:44:20;7.99;74.44
77247;SHT35;66279;42.820;23.374;2023-04-01T00:46:48;7.96;74.41
77247;SHT35;66279;42.820;23.374;2023-04-01T00:49:15;7.97;74.90
77247;SHT35;66279;42.820;23.374;2023-04-01T00:51:45;7.96;74.80
77247;SHT35;66279;42.820;23.374;2023-04-01T00:54:12;7.90;75.18
77247;SHT35;66279;42.820;23.374;2023-04-01T00:56:42;7.86;74.39
77247;SHT35;66279;42.820;23.374;2023-04-01T00:59:14;7.88;73.79
77247;SHT35;66279;42.820;23.374;2023-04-01T01:01:41;7.92;73.20
77247;SHT35;66279;42.820;23.374;2023-04-01T01:04:24;7.89;73.27
77247;SHT35;66279;42.820;23.374;2023-04-01T01:07:32;7.83;74.04
77247;SHT35;66279;42.820;23.374;2023-04-01T01:10:10;7.74;74.81
77247;SHT35;66279;42.820;23.374;2023-04-01T01:18:35;7.61;75.54
77247;SHT35;66279;42.820;23.374;2023-04-01T01:24:28;7.57;74.93
77247;SHT35;66279;42.820;23.374;2023-04-01T01:27:04;7.54;75.53
77247;SHT35;66279;42.820;23.374;2023-04-01T01:37:40;7.45;75.35
77247;SHT35;66279;42.820;23.374;2023-04-01T01:40:09;7.44;74.79
77247;SHT35;66279;42.820;23.374;2023-04-01T01:42:38;7.44;74.56
77247;SHT35;66279;42.820;23.374;2023-04-01T01:45:06;7.41;75.10
77247;SHT35;66279;42.820;23.374;2023-04-01T01:47:33;7.43;75.21
77247;SHT35;66279;42.820;23.374;2023-04-01T01:50:00;7.38;75.92
77247;SHT35;66279;42.820;23.374;2023-04-01T01:52:29;7.34;75.64
77247;SHT35;66279;42.820;23.374;2023-04-01T01:54:57;7.28;75.68
77247;SHT35;66279;42.820;23.374;2023-04-01T01:57:29;7.28;75.95
77247;SHT35;66279;42.820;23.374;2023-04-01T02:00:00;7.26;75.68
77247;SHT35;66279;42.820;23.374;2023-04-01T02:02:27;7.26;76.01
77247;SHT35;66279;42.820;23.374;2023-04-01T02:04:56;7.21;75.78
77247;SHT35;66279;42.820;23.374;2023-04-01T02:07:31;7.18;76.48
77247;SHT35;66279;42.820;23.374;2023-04-01T02:09:59;7.17;76.47
77247;SHT35;66279;42.820;23.374;2023-04-01T02:12:25;7.20;76.37
77247;SHT35;66279;42.820;23.374;2023-04-01T02:15:12;7.16;76.60
77247;SHT35;66279;42.820;23.374;2023-04-01T02:17:43;7.18;76.11
77247;SHT35;66279;42.820;23.374;2023-04-01T02:20:15;7.16;76.69
77247;SHT35;66279;42.820;23.374;2023-04-01T02:22:46;7.14;76.28
77247;SHT35;66279;42.820;23.374;2023-04-01T02:25:16;7.14;76.51
77247;SHT35;66279;42.820;23.374;2023-04-01T02:27:44;7.08;76.53
77247;SHT35;66279;42.820;23.374;2023-04-01T02:30:12;7.07;77.32
77247;SHT35;66279;42.820;23.374;2023-04-01T02:32:38;7.04;77.14
77247;SHT35;66279;42.820;23.374;2023-04-01T02:35:07;7.10;77.59
77247;SHT35;66279;42.820;23.374;2023-04-01T02:37:34;7.10;77.02
77247;SHT35;66279;42.820;23.374;2023-04-01T02:40:07;7.11;76.55
77247;SHT35;66279;42.820;23.374;2023-04-01T02:42:33;7.10;77.06
77247;SHT35;66279;42.820;23.374;2023-04-01T02:44:59;7.06;77.12
77247;SHT35;66279;42.820;23.374;2023-04-01T02:47:25;7.01;77.37
77247;SHT35;66279;42.820;23.374;2023-04-01T02:49:50;6.99;76.83
77247;SHT35;66279;42.820;23.374;2023-04-01T02:52:16;6.93;77.29
77247;SHT35;66279;42.820;23.374;2023-04-01T02:54:42;6.90;76.61
77247;SHT35;66279;42.820;23.374;2023-04-01T02:57:07;6.89;77.38
77247;SHT35;66279;42.820;23.374;2023-04-01T02:59:33;6.86;77.71
77247;SHT35;66279;42.820;23.374;2023-04-01T03:01:59;6.89;77.57
77247;SHT35;66279;42.820;23.374;2023-04-01T03:04:24;6.87;77.18
77247;SHT35;66279;42.820;23.374;2023-04-01T03:06:50;6.89;77.10
77247;SHT35;66279;42.820;23.374;2023-04-01T03:09:16;6.93;78.03
77247;SHT35;66279;42.820;23.374;2023-04-01T03:11:42;7.00;77.79
77247;SHT35;66279;42.820;23.374;2023-04-01T03:14:07;7.04;78.16
77247;SHT35;66279;42.820;23.374;2023-04-01T03:16:33;7.06;78.63
77247;SHT35;66279;42.820;23.374;2023-04-01T03:18:58;7.11;79.37
77247;SHT35;66279;42.820;23.374;2023-04-01T03:21:27;7.11;79.49
77247;SHT35;66279;42.820;23.374;2023-04-01T03:23:53;7.18;78.87
77247;SHT35;66279;42.820;23.374;2023-04-01T03:26:19;7.21;78.86
77247;SHT35;66279;42.820;23.374;2023-04-01T03:28:45;7.24;79.55
77247;SHT35;66279;42.820;23.374;2023-04-01T03:31:11;7.27;79.77
77247;SHT35;66279;42.820;23.374;2023-04-01T03:33:36;7.26;80.10
77247;SHT35;66279;42.820;23.374;2023-04-01T03:36:02;7.31;79.94
77247;SHT35;66279;42.820;23.374;2023-04-01T03:38:35;7.30;81.61
77247;SHT35;66279;42.820;23.374;2023-04-01T03:41:01;7.35;81.43
77247;SHT35;66279;42.820;23.374;2023-04-01T03:43:26;7.32;81.80
77247;SHT35;66279;42.820;23.374;2023-04-01T03:45:52;7.34;82.51
77247;SHT35;66279;42.820;23.374;2023-04-01T03:48:20;7.35;82.97
77247;SHT35;66279;42.820;23.374;2023-04-01T03:50:46;7.47;82.63
77247;SHT35;66279;42.820;23.374;2023-04-01T03:53:11;7.52;81.91
77247;SHT35;66279;42.820;23.374;2023-04-01T03:55:38;7.61;82.02
77247;SHT35;66279;42.820;23.374;2023-04-01T03:58:05;7.71;82.49
77247;SHT35;66279;42.820;23.374;2023-04-01T04:00:30;7.72;83.29
77247;SHT35;66279;42.820;23.374;2023-04-01T04:02:56;7.79;82.29
77247;SHT35;66279;42.820;23.374;2023-04-01T04:05:26;7.92;81.29
77247;SHT35;66279;42.820;23.374;2023-04-01T04:07:52;7.99;82.96
77247;SHT35;66279;42.820;23.374;2023-04-01T04:10:18;8.03;83.56
77247;SHT35;66279;42.820;23.374;2023-04-01T04:12:44;8.06;84.12
77247;SHT35;66279;42.820;23.374;2023-04-01T04:15:10;8.12;84.16
77247;SHT35;66279;42.820;23.374;2023-04-01T04:17:35;8.17;83.06
77247;SHT35;66279;42.820;23.374;2023-04-01T04:20:01;8.20;84.34
77247;SHT35;66279;42.820;23.374;2023-04-01T04:22:27;8.23;83.66
77247;SHT35;66279;42.820;23.374;2023-04-01T04:24:53;8.22;83.38
77247;SHT35;66279;42.820;23.374;2023-04-01T04:27:18;8.23;83.41
77247;SHT35;66279;42.820;23.374;2023-04-01T04:29:44;8.20;83.52
77247;SHT35;66279;42.820;23.374;2023-04-01T04:32:10;8.17;84.08
77247;SHT35;66279;42.820;23.374;2023-04-01T04:34:35;8.13;83.78
77247;SHT35;66279;42.820;23.374;2023-04-01T04:37:00;8.12;83.75
77247;SHT35;66279;42.820;23.374;2023-04-01T04:39:26;8.13;83.43
77247;SHT35;66279;42.820;23.374;2023-04-01T04:41:51;8.07;83.81
77247;SHT35;66279;42.820;23.374;2023-04-01T04:44:17;8.07;84.15
77247;SHT35;66279;42.820;23.374;2023-04-01T04:46:43;8.09;84.31
77247;SHT35;66279;42.820;23.374;2023-04-01T04:49:08;8.09;83.43
77247;SHT35;66279;42.820;23.374;2023-04-01T04:51:34;8.09;83.31
77247;SHT35;66279;42.820;23.374;2023-04-01T04:54:04;8.07;82.98
77247;SHT35;66279;42.820;23.374;2023-04-01T04:56:30;8.07;83.12
77247;SHT35;66279;42.820;23.374;2023-04-01T04:58:56;8.03;84.98
77247;SHT35;66279;42.820;23.374;2023-04-01T05:01:22;7.97;83.54
77247;SHT35;66279;42.820;23.374;2023-04-01T05:03:48;7.99;82.07
77247;SHT35;66279;42.820;23.374;2023-04-01T05:06:14;8.13;82.40
77247;SHT35;66279;42.820;23.374;2023-04-01T05:08:41;8.13;83.70
77247;SHT35;66279;42.820;23.374;2023-04-01T05:11:12;8.12;83.64
77247;SHT35;66279;42.820;23.374;2023-04-01T05:13:38;8.06;82.36
77247;SHT35;66279;42.820;23.374;2023-04-01T05:16:08;8.00;82.04
77247;SHT35;66279;42.820;23.374;2023-04-01T05:18:33;7.96;81.71
77247;SHT35;66279;42.820;23.374;2023-04-01T05:20:59;7.92;80.76
77247;SHT35;66279;42.820;23.374;2023-04-01T05:23:25;7.92;80.74
77247;SHT35;66279;42.820;23.374;2023-04-01T05:25:50;7.93;80.85
77247;SHT35;66279;42.820;23.374;2023-04-01T05:28:18;7.86;81.13
77247;SHT35;66279;42.820;23.374;2023-04-01T05:30:43;7.88;81.07
77247;SHT35;66279;42.820;23.374;2023-04-01T05:33:10;7.97;82.68
77247;SHT35;66279;42.820;23.374;2023-04-01T05:35:36;8.07;81.66
77247;SHT35;66279;42.820;23.374;2023-04-01T05:38:02;8.13;80.97
77247;SHT35;66279;42.820;23.374;2023-04-01T05:40:29;8.26;81.49
77247;SHT35;66279;42.820;23.374;2023-04-01T05:42:54;8.36;82.69
77247;SHT35;66279;42.820;23.374;2023-04-01T05:45:20;8.44;82.23
77247;SHT35;66279;42.820;23.374;2023-04-01T05:47:45;8.55;80.34
77247;SHT35;66279;42.820;23.374;2023-04-01T05:50:12;8.64;80.08
77247;SHT35;66279;42.820;23.374;2023-04-01T05:52:39;8.89;79.94
77247;SHT35;66279;42.820;23.374;2023-04-01T05:55:05;9.15;78.58
77247;SHT35;66279;42.820;23.374;2023-04-01T05:57:31;9.44;78.52
77247;SHT35;66279;42.820;23.374;2023-04-01T05:59:57;9.80;78.52
77247;SHT35;66279;42.820;23.374;2023-04-01T06:02:22;10.18;75.62
77247;SHT35;66279;42.820;23.374;2023-04-01T06:04:49;10.49;74.58
77247;SHT35;66279;42.820;23.374;2023-04-01T06:07:17;10.66;73.64
77247;SHT35;66279;42.820;23.374;2023-04-01T06:09:43;10.90;70.80
77247;SHT35;66279;42.820;23.374;2023-04-01T06:29:38;12.21;64.88
77247;SHT35;66279;42.820;23.374;2023-04-01T06:40:37;12.89;64.55
77247;SHT35;66279;42.820;23.374;2023-04-01T06:44:04;13.15;64.89
77247;SHT35;66279;42.820;23.374;2023-04-01T06:51:51;13.06;61.52
77247;SHT35;66279;42.820;23.374;2023-04-01T06:54:28;13.10;61.83
77247;SHT35;66279;42.820;23.374;2023-04-01T06:57:05;13.26;63.55
77247;SHT35;66279;42.820;23.374;2023-04-01T06:59:37;13.33;62.98
77247;SHT35;66279;42.820;23.374;2023-04-01T07:04:46;13.13;61.54
77247;SHT35;66279;42.820;23.374;2023-04-01T07:08:02;13.13;62.76
77247;SHT35;66279;42.820;23.374;2023-04-01T07:10:09;13.19;62.81
77247;SHT35;66279;42.820;23.374;2023-04-01T07:12:43;13.46;63.68
77247;SHT35;66279;42.820;23.374;2023-04-01T07:15:33;13.91;62.01
77247;SHT35;66279;42.820;23.374;2023-04-01T07:18:15;14.21;61.02
77247;SHT35;66279;42.820;23.374;2023-04-01T07:20:42;14.53;60.29
77247;SHT35;66279;42.820;23.374;2023-04-01T07:23:26;14.79;59.99
77247;SHT35;66279;42.820;23.374;2023-04-01T07:25:58;14.81;58.94
77247;SHT35;66279;42.820;23.374;2023-04-01T07:28:23;15.10;60.00
77247;SHT35;66279;42.820;23.374;2023-04-01T07:31:02;15.17;58.62
77247;SHT35;66279;42.820;23.374;2023-04-01T07:41:11;15.70;53.24
77247;SHT35;66279;42.820;23.374;2023-04-01T07:46:46;15.78;52.56
77247;SHT35;66279;42.820;23.374;2023-04-01T07:52:26;16.07;54.82
77247;SHT35;66279;42.820;23.374;2023-04-01T08:00:44;16.07;53.47
77247;SHT35;66279;42.820;23.374;2023-04-01T08:14:23;16.16;51.32
77247;SHT35;66279;42.820;23.374;2023-04-01T08:22:09;16.88;51.70
77247;SHT35;66279;42.820;23.374;2023-04-01T08:24:42;17.03;46.08
77247;SHT35;66279;42.820;23.374;2023-04-01T08:27:37;17.19;47.82
77247;SHT35;66279;42.820;23.374;2023-04-01T08:30:17;17.34;48.17
77247;SHT35;66279;42.820;23.374;2023-04-01T08:32:57;17.29;48.28
77247;SHT35;66279;42.820;23.374;2023-04-01T08:35:34;17.53;50.04
77247;SHT35;66279;42.820;23.374;2023-04-01T08:38:11;17.84;44.66
77247;SHT35;66279;42.820;23.374;2023-04-01T08:41:08;17.80;42.92
77247;SHT35;66279;42.820;23.374;2023-04-01T08:44:02;17.39;43.91
77247;SHT35;66279;42.820;23.374;2023-04-01T08:46:53;17.02;46.48
77247;SHT35;66279;42.820;23.374;2023-04-01T08:52:18;17.57;43.30
77247;SHT35;66279;42.820;23.374;2023-04-01T09:00:48;19.59;39.85
77247;SHT35;66279;42.820;23.374;2023-04-01T09:14:23;20.31;40.47
77247;SHT35;66279;42.820;23.374;2023-04-01T09:28:28;19.63;34.74
77247;SHT35;66279;42.820;23.374;2023-04-01T09:39:37;19.49;39.14
77247;SHT35;66279;42.820;23.374;2023-04-01T09:42:29;19.54;39.51
77247;SHT35;66279;42.820;23.374;2023-04-01T09:44:58;19.63;38.40
77247;SHT35;66279;42.820;23.374;2023-04-01T09:47:45;19.90;36.73
77247;SHT35;66279;42.820;23.374;2023-04-01T10:35:09;21.60;35.30
77247;SHT35;66279;42.820;23.374;2023-04-01T10:43:06;21.71;34.73
77247;SHT35;66279;42.820;23.374;2023-04-01T10:46:02;21.37;35.41
77247;SHT35;66279;42.820;23.374;2023-04-01T10:49:08;21.20;34.69
77247;SHT35;66279;42.820;23.374;2023-04-01T11:12:06;18.00;41.52
77247;SHT35;66279;42.820;23.374;2023-04-01T11:46:19;16.79;51.66
77247;SHT35;66279;42.820;23.374;2023-04-01T12:05:54;12.07;76.24
77247;SHT35;66279;42.820;23.374;2023-04-01T12:11:44;12.23;75.01
77247;SHT35;66279;42.820;23.374;2023-04-01T12:16:58;12.34;73.99
77247;SHT35;66279;42.820;23.374;2023-04-01T12:22:55;12.44;74.00
77247;SHT35;66279;42.820;23.374;2023-04-01T12:28:29;12.75;71.04
77247;SHT35;66279;42.820;23.374;2023-04-01T12:33:38;12.91;69.77
77247;SHT35;66279;42.820;23.374;2023-04-01T12:36:37;12.96;72.37
77247;SHT35;66279;42.820;23.374;2023-04-01T12:55:36;12.75;75.20
77247;SHT35;66279;42.820;23.374;2023-04-01T13:01:15;12.71;74.80
77247;SHT35;66279;42.820;23.374;2023-04-01T13:20:19;13.40;72.79
77247;SHT35;66279;42.820;23.374;2023-04-01T13:25:39;13.75;72.20
77247;SHT35;66279;42.820;23.374;2023-04-01T13:28:12;13.81;72.35
77247;SHT35;66279;42.820;23.374;2023-04-01T13:33:39;13.90;70.01
77247;SHT35;66279;42.820;23.374;2023-04-01T13:36:24;14.08;70.01
77247;SHT35;66279;42.820;23.374;2023-04-01T13:39:41;14.36;70.25
77247;SHT35;66279;42.820;23.374;2023-04-01T13:44:31;14.70;66.04
77247;SHT35;66279;42.820;23.374;2023-04-01T13:47:17;14.83;67.87
77247;SHT35;66279;42.820;23.374;2023-04-01T13:50:17;15.11;68.09
77247;SHT35;66279;42.820;23.374;2023-04-01T14:01:41;15.45;67.23
77247;SHT35;66279;42.820;23.374;2023-04-01T14:14:54;15.83;59.83
77247;SHT35;66279;42.820;23.374;2023-04-01T14:21:17;15.97;57.62
77247;SHT35;66279;42.820;23.374;2023-04-01T14:29:23;16.88;55.38
77247;SHT35;66279;42.820;23.374;2023-04-01T14:35:37;16.61;57.58
77247;SHT35;66279;42.820;23.374;2023-04-01T14:37:55;16.23;56.00
77247;SHT35;66279;42.820;23.374;2023-04-01T14:48:39;16.75;56.34
77247;SHT35;66279;42.820;23.374;2023-04-01T14:51:36;16.78;55.60
77247;SHT35;66279;42.820;23.374;2023-04-01T14:54:17;16.65;54.83
77247;SHT35;66279;42.820;23.374;2023-04-01T15:02:57;17.12;56.20
77247;SHT35;66279;42.820;23.374;2023-04-01T15:05:42;16.89;55.96
77247;SHT35;66279;42.820;23.374;2023-04-01T15:08:44;16.98;55.74
77247;SHT35;66279;42.820;23.374;2023-04-01T15:11:16;16.85;55.29
77247;SHT35;66279;42.820;23.374;2023-04-01T15:13:53;16.86;55.90
77247;SHT35;66279;42.820;23.374;2023-04-01T15:16:36;16.68;55.96
77247;SHT35;66279;42.820;23.374;2023-04-01T15:22:07;16.63;54.83
77247;SHT35;66279;42.820;23.374;2023-04-01T15:25:00;16.69;54.95
77247;SHT35;66279;42.820;23.374;2023-04-01T15:27:32;16.78;54.76
77247;SHT35;66279;42.820;23.374;2023-04-01T15:30:27;16.89;54.39
77247;SHT35;66279;42.820;23.374;2023-04-01T15:33:10;16.85;55.34
77247;SHT35;66279;42.820;23.374;2023-04-01T15:35:45;16.78;55.87
77247;SHT35;66279;42.820;23.374;2023-04-01T15:41:15;16.50;55.91
77247;SHT35;66279;42.820;23.374;2023-04-01T15:43:49;16.23;58.40
77247;SHT35;66279;42.820;23.374;2023-04-01T15:46:57;15.08;57.48
77247;SHT35;66279;42.820;23.374;2023-04-01T15:57:24;10.70;69.04
77247;SHT35;66279;42.820;23.374;2023-04-01T16:05:35;10.04;74.45
77247;SHT35;66279;42.820;23.374;2023-04-01T16:08:11;9.56;76.59
77247;SHT35;66279;42.820;23.374;2023-04-01T16:19:53;9.27;78.26
77247;SHT35;66279;42.820;23.374;2023-04-01T16:23:04;9.36;77.30
77247;SHT35;66279;42.820;23.374;2023-04-01T16:30:56;9.44;76.32
77247;SHT35;66279;42.820;23.374;2023-04-01T16:33:31;9.40;77.24
77247;SHT35;66279;42.820;23.374;2023-04-01T16:41:41;9.56;76.91
77247;SHT35;66279;42.820;23.374;2023-04-01T16:44:26;9.63;78.40
77247;SHT35;66279;42.820;23.374;2023-04-01T16:46:54;9.70;76.81
77247;SHT35;66279;42.820;23.374;2023-04-01T16:49:30;9.70;77.08
77247;SHT35;66279;42.820;23.374;2023-04-01T16:59:53;9.77;77.64
77247;SHT35;66279;42.820;23.374;2023-04-01T17:02:25;9.58;77.64
77247;SHT35;66279;42.820;23.374;2023-04-01T17:04:59;9.48;78.29
77247;SHT35;66279;42.820;23.374;2023-04-01T17:07:47;9.35;78.83
77247;SHT35;66279;42.820;23.374;2023-04-01T17:16:05;9.19;79.04
77247;SHT35;66279;42.820;23.374;2023-04-01T17:18:43;9.09;79.42
77247;SHT35;66279;42.820;23.374;2023-04-01T17:40:30;8.43;76.59
77247;SHT35;66279;42.820;23.374;2023-04-01T17:45:43;8.29;77.81
77247;SHT35;66279;42.820;23.374;2023-04-01T17:53:48;7.86;78.87
77247;SHT35;66279;42.820;23.374;2023-04-01T18:09:56;7.50;78.52
77247;SHT35;66279;42.820;23.374;2023-04-01T18:18:46;7.50;79.26
77247;SHT35;66279;42.820;23.374;2023-04-01T18:27:02;7.43;79.47
77247;SHT35;66279;42.820;23.374;2023-04-01T18:38:00;7.40;79.97
77247;SHT35;66279;42.820;23.374;2023-04-01T18:40:46;7.40;80.31
77247;SHT35;66279;42.820;23.374;2023-04-01T18:43:30;7.41;80.46
77247;SHT35;66279;42.820;23.374;2023-04-01T18:51:38;7.38;80.04
77247;SHT35;66279;42.820;23.374;2023-04-01T18:54:40;7.37;80.76
77247;SHT35;66279;42.820;23.374;2023-04-01T18:57:13;7.40;80.66
77247;SHT35;66279;42.820;23.374;2023-04-01T19:02:25;7.41;80.33
77247;SHT35;66279;42.820;23.374;2023-04-01T19:05:14;7.44;80.85
77247;SHT35;66279;42.820;23.374;2023-04-01T19:07:55;7.40;80.57
77247;SHT35;66279;42.820;23.374;2023-04-01T19:10:42;7.37;80.78
77247;SHT35;66279;42.820;23.374;2023-04-01T19:21:53;7.26;81.13
77247;SHT35;66279;42.820;23.374;2023-04-01T19:26:40;7.23;81.01
77247;SHT35;66279;42.820;23.374;2023-04-01T19:35:31;7.24;80.29
77247;SHT35;66279;42.820;23.374;2023-04-01T19:38:15;7.27;80.04
77247;SHT35;66279;42.820;23.374;2023-04-01T19:40:53;7.28;80.51
77247;SHT35;66279;42.820;23.374;2023-04-01T19:46:49;7.27;80.02
77247;SHT35;66279;42.820;23.374;2023-04-01T19:52:28;7.31;78.95
77247;SHT35;66279;42.820;23.374;2023-04-01T20:00:32;7.34;78.99
77247;SHT35;66279;42.820;23.374;2023-04-01T20:03:11;7.37;78.69
77247;SHT35;66279;42.820;23.374;2023-04-01T20:05:50;7.34;79.23
77247;SHT35;66279;42.820;23.374;2023-04-01T20:08:38;7.35;78.99
77247;SHT35;66279;42.820;23.374;2023-04-01T20:19:11;7.40;79.09
77247;SHT35;66279;42.820;23.374;2023-04-01T20:21:45;7.40;78.84
77247;SHT35;66279;42.820;23.374;2023-04-01T20:24:20;7.38;79.04
77247;SHT35;66279;42.820;23.374;2023-04-01T20:26:59;7.35;78.83
77247;SHT35;66279;42.820;23.374;2023-04-01T20:32:26;7.31;79.17
77247;SHT35;66279;42.820;23.374;2023-04-01T20:37:56;7.28;80.06
77247;SHT35;66279;42.820;23.374;2023-04-01T20:40:35;7.28;80.48
77247;SHT35;66279;42.820;23.374;2023-04-01T20:45:56;7.35;79.14
77247;SHT35;66279;42.820;23.374;2023-04-01T20:51:30;7.43;79.15
77247;SHT35;66279;42.820;23.374;2023-04-01T20:57:09;7.45;79.30
77247;SHT35;66279;42.820;23.374;2023-04-01T20:59:51;7.47;79.48
77247;SHT35;66279;42.820;23.374;2023-04-01T21:02:47;7.48;79.49
77247;SHT35;66279;42.820;23.374;2023-04-01T21:08:21;7.51;79.21
77247;SHT35;66279;42.820;23.374;2023-04-01T21:19:03;7.55;79.16
77247;SHT35;66279;42.820;23.374;2023-04-01T21:27:20;7.59;79.43
77247;SHT35;66279;42.820;23.374;2023-04-01T21:38:38;7.59;79.76
77247;SHT35;66279;42.820;23.374;2023-04-01T21:41:15;7.58;79.81
77247;SHT35;66279;42.820;23.374;2023-04-01T21:44:15;7.54;80.07
77247;SHT35;66279;42.820;23.374;2023-04-01T21:47:01;7.48;79.68
77247;SHT35;66279;42.820;23.374;2023-04-01T21:57:48;7.10;80.07
77247;SHT35;66279;42.820;23.374;2023-04-01T22:00:32;7.01;79.57
77247;SHT35;66279;42.820;23.374;2023-04-01T22:03:59;6.96;79.69
77247;SHT35;66279;42.820;23.374;2023-04-01T22:12:10;6.79;79.83
77247;SHT35;66279;42.820;23.374;2023-04-01T22:14:41;6.75;80.34
77247;SHT35;66279;42.820;23.374;2023-04-01T22:17:25;6.76;80.58
77247;SHT35;66279;42.820;23.374;2023-04-01T22:20:26;6.69;80.79
77247;SHT35;66279;42.820;23.374;2023-04-01T22:25:33;6.58;80.61
77247;SHT35;66279;42.820;23.374;2023-04-01T22:28:27;6.49;80.83
77247;SHT35;66279;42.820;23.374;2023-04-01T22:30:59;6.44;80.14
77247;SHT35;66279;42.820;23.374;2023-04-01T22:38:47;6.20;80.78
77247;SHT35;66279;42.820;23.374;2023-04-01T22:44:15;5.83;81.30
77247;SHT35;66279;42.820;23.374;2023-04-01T22:50:17;5.59;82.87
77247;SHT35;66279;42.820;23.374;2023-04-01T22:52:47;5.58;83.24
77247;SHT35;66279;42.820;23.374;2023-04-01T22:55:25;5.62;83.09
77247;SHT35;66279;42.820;23.374;2023-04-01T22:58:03;5.74;82.96
77247;SHT35;66279;42.820;23.374;2023-04-01T23:00:33;5.85;82.52
77247;SHT35;66279;42.820;23.374;2023-04-01T23:03:17;5.89;82.65
77247;SHT35;66279;42.820;23.374;2023-04-01T23:05:57;5.89;82.60
77247;SHT35;66279;42.820;23.374;2023-04-01T23:11:08;5.85;82.26
77247;SHT35;66279;42.820;23.374;2023-04-01T23:13:38;5.77;82.56
77247;SHT35;66279;42.820;23.374;2023-04-01T23:16:06;5.76;82.84
77247;SHT35;66279;42.820;23.374;2023-04-01T23:18:42;5.77;83.25
77247;SHT35;66279;42.820;23.374;2023-04-01T23:21:53;5.74;82.04
77247;SHT35;66279;42.820;23.374;2023-04-01T23:24:33;5.73;82.47
77247;SHT35;66279;42.820;23.374;2023-04-01T23:27:08;5.70;82.39
77247;SHT35;66279;42.820;23.374;2023-04-01T23:29:37;5.69;82.21
77247;SHT35;66279;42.820;23.374;2023-04-01T23:32:05;5.74;82.39
77247;SHT35;66279;42.820;23.374;2023-04-01T23:34:38;5.77;82.16
77247;SHT35;66279;42.820;23.374;2023-04-01T23:37:08;5.85;81.75
77247;SHT35;66279;42.820;23.374;2023-04-01T23:39:41;5.90;81.46
77247;SHT35;66279;42.820;23.374;2023-04-01T23:42:22;6.06;80.74
77247;SHT35;66279;42.820;23.374;2023-04-01T23:44:51;6.04;80.34
77247;SHT35;66279;42.820;23.374;2023-04-01T23:47:30;6.07;80.39
77247;SHT35;66279;42.820;23.374;2023-04-01T23:49:58;6.04;80.29
77247;SHT35;66279;42.820;23.374;2023-04-01T23:52:30;6.04;79.98
77247;SHT35;66279;42.820;23.374;2023-04-01T23:55:04;6.08;80.07
77247;SHT35;66279;42.820;23.374;2023-04-01T23:57:37;6.00;80.22
